Impacts TAF Board
For situational awareness. Not to be used for flight planning purposes.
IDs:

KLAS - Las Vegas/Reid Intl, NV, US

Issued at 2051 UTC 02 Oct 2022
Updated at 2302 UTC 02 Oct 2022
Potential Impact None Slight Moderate High
Time<<03/12Z 03/13Z 03/14Z 03/15Z 03/16Z 03/17Z 03/18Z 03/19Z 03/20Z 03/21Z 03/22Z 03/23Z 04/00Z>>
Type PRVL PRVL PRVL PRVL PRVL PRVL PRVL PRVL PRVL PRVL PRVL PRVL
VIS >6 >6 >6 >6 >6 >6 >6 >6 >6 >6 >6 >6
CIG -- -- -- -- -- -- -- -- -- -- -- --
Cover SKC SKC SKC SKC SKC SKC FEW FEW FEW FEW FEW FEW
FltCat VFR VFR VFR VFR VFR VFR VFR VFR VFR VFR VFR VFR
WX -- -- -- -- -- -- -- -- -- -- -- --
WDir VRB VRB VRB VRB VRB VRB 80 80 80 80 80 80
WSpd 5 5 5 5 5 5 6 6 6 6 6 6
WGst -- -- -- -- -- -- -- -- -- -- -- --
WSHgt -- -- -- -- -- -- -- -- -- -- -- --
WSDir -- -- -- -- -- -- -- -- -- -- -- --
WSSpd -- -- -- -- -- -- -- -- -- -- -- --
Raw TAF
KLAS 022051Z 0221/0324 20010G17KT P6SM FEW120
  FM030200 22008KT P6SM SKC
  FM031000 VRB05KT P6SM SKC
  FM031800 08006KT P6SM FEW150


METAR Board
Radar Display
Forecast Discussion
For situational awareness. Not to be used for flight planning purposes.